createdAt,value
2017-04-07T00:02:55.577Z,0
2017-04-07T00:07:51.772Z,0
2017-04-07T00:12:48.386Z,0
2017-04-07T00:17:45.377Z,0
2017-04-07T00:22:41.828Z,0
2017-04-07T00:27:38.303Z,0
2017-04-07T00:32:34.629Z,0
2017-04-07T00:37:31.181Z,0
2017-04-07T00:42:27.469Z,0
2017-04-07T00:47:24.181Z,0
2017-04-07T00:52:20.496Z,0
2017-04-07T00:57:16.840Z,0
2017-04-07T01:02:13.334Z,0
2017-04-07T01:07:09.641Z,0
2017-04-07T01:12:06.156Z,0
2017-04-07T01:17:05.150Z,0
2017-04-07T01:22:00.903Z,0
2017-04-07T01:26:58.349Z,0
2017-04-07T01:31:54.793Z,0
2017-04-07T01:36:51.330Z,0
2017-04-07T01:41:47.700Z,0
2017-04-07T01:46:44.939Z,0
2017-04-07T01:51:41.546Z,0
2017-04-07T01:56:38.123Z,0
2017-04-07T02:26:50.501Z,0
2017-04-07T02:31:46.536Z,0
2017-04-07T02:36:42.791Z,0
2017-04-07T02:41:39.219Z,0
2017-04-07T02:46:35.674Z,0
2017-04-07T02:51:32.126Z,0
2017-04-07T02:56:28.484Z,0
2017-04-07T03:01:25.219Z,0
2017-04-07T03:06:21.622Z,0
2017-04-07T03:11:17.852Z,0
2017-04-07T03:16:14.625Z,0
2017-04-07T03:21:10.943Z,0
2017-04-07T03:26:07.288Z,0
2017-04-07T03:31:04.101Z,0
2017-04-07T03:36:00.423Z,0
2017-04-07T03:40:57.356Z,0
2017-04-07T03:45:53.488Z,0
2017-04-07T03:50:50.826Z,0
2017-04-07T03:55:47.405Z,0
2017-04-07T04:00:43.994Z,0
2017-04-07T04:05:40.424Z,0
2017-04-07T04:10:37.726Z,0
2017-04-07T04:15:34.167Z,0
2017-04-07T04:20:30.744Z,0
2017-04-07T04:25:27.024Z,0
2017-04-07T04:30:24.124Z,4
2017-04-07T04:35:21.309Z,8
2017-04-07T04:40:18.402Z,16
2017-04-07T04:45:14.881Z,24
2017-04-07T04:50:11.449Z,52
2017-04-07T04:55:09.796Z,80
2017-04-07T05:00:05.987Z,112
2017-04-07T05:05:02.459Z,176
2017-04-07T05:09:58.911Z,244
2017-04-07T05:14:55.331Z,292
2017-04-07T05:19:54.580Z,344
2017-04-07T05:24:50.461Z,320
2017-04-07T05:29:46.945Z,384
2017-04-07T05:34:44.452Z,500
2017-04-07T05:39:40.974Z,612
2017-04-07T05:44:37.410Z,764
2017-04-07T05:49:33.910Z,1132
2017-04-07T05:54:32.387Z,1264
2017-04-07T05:59:28.776Z,1556
2017-04-07T06:04:25.287Z,2000
2017-04-07T06:09:21.860Z,1912
2017-04-07T06:14:18.275Z,2000
2017-04-07T06:19:14.805Z,1948
2017-04-07T06:24:11.185Z,1584
2017-04-07T06:29:07.908Z,2936
2017-04-07T06:34:04.471Z,3480
2017-04-07T06:39:01.152Z,3636
2017-04-07T06:43:57.836Z,3500
2017-04-07T06:48:54.472Z,3748
2017-04-07T06:53:51.000Z,3616
2017-04-07T06:58:47.422Z,3784
2017-04-07T07:03:44.543Z,3744
2017-04-07T07:08:41.108Z,3536
2017-04-07T07:13:37.281Z,4092
2017-04-07T07:18:33.862Z,3408
2017-04-07T07:23:32.049Z,3808
2017-04-07T07:28:28.418Z,2880
2017-04-07T07:33:25.164Z,3132
2017-04-07T07:38:21.445Z,2564
2017-04-07T07:43:17.774Z,4148
2017-04-07T07:48:14.161Z,6300
2017-04-07T07:53:11.435Z,7504
2017-04-07T07:58:08.878Z,7576
2017-04-07T08:03:05.469Z,7548
2017-04-07T08:08:01.655Z,7104
2017-04-07T08:12:58.106Z,6584
2017-04-07T08:17:54.627Z,6596
2017-04-07T08:22:51.580Z,6464
2017-04-07T08:27:48.561Z,6836
2017-04-07T08:32:45.299Z,6280
2017-04-07T08:37:41.753Z,7768
2017-04-07T08:42:38.079Z,8476
2017-04-07T08:47:34.723Z,9468
2017-04-07T08:52:31.228Z,8756
2017-04-07T08:57:28.887Z,9164
2017-04-07T09:02:25.996Z,9288
2017-04-07T09:07:22.803Z,9236
2017-04-07T09:12:19.901Z,8676
2017-04-07T09:17:16.248Z,8848
2017-04-07T09:22:12.967Z,8796
2017-04-07T09:27:09.770Z,9668
2017-04-07T09:32:07.862Z,10264
2017-04-07T09:37:04.317Z,11036
2017-04-07T09:42:00.964Z,9816
2017-04-07T09:46:57.588Z,11304
2017-04-07T09:51:54.963Z,12436
2017-04-07T09:56:51.185Z,18144
2017-04-07T10:01:48.014Z,22496
2017-04-07T10:06:44.882Z,26400
2017-04-07T10:11:41.633Z,31840
2017-04-07T10:16:39.592Z,45856
2017-04-07T10:21:37.195Z,41600
2017-04-07T10:26:35.830Z,24704
2017-04-07T10:31:32.050Z,15720
2017-04-07T10:36:27.512Z,16896
2017-04-07T10:41:24.457Z,81312
2017-04-07T10:46:22.859Z,9944
2017-04-07T10:51:18.646Z,9228
2017-04-07T10:56:15.087Z,9420
2017-04-07T11:01:11.892Z,38912
2017-04-07T11:06:08.563Z,18688
2017-04-07T11:11:04.728Z,55968
2017-04-07T11:16:03.349Z,19744
2017-04-07T11:21:01.679Z,61440
2017-04-07T11:25:58.459Z,19648
2017-04-07T11:30:55.664Z,17760
2017-04-07T11:35:51.234Z,18240
2017-04-07T11:40:46.905Z,50304
2017-04-07T11:45:46.857Z,34720
2017-04-07T11:50:43.428Z,35936
2017-04-07T11:55:42.164Z,9696
2017-04-07T12:00:37.320Z,7040
2017-04-07T12:05:33.448Z,9544
2017-04-07T12:10:29.307Z,8064
2017-04-07T12:15:25.983Z,14280
2017-04-07T12:20:22.563Z,13668
2017-04-07T12:25:19.911Z,66912
2017-04-07T12:30:18.757Z,15528
2017-04-07T12:35:15.370Z,20096
2017-04-07T12:40:12.235Z,17696
2017-04-07T12:45:08.567Z,14164
2017-04-07T12:50:05.139Z,10488
2017-04-07T13:00:11.877Z,8820
2017-04-07T13:05:07.607Z,6428
2017-04-07T13:10:03.771Z,5404
2017-04-07T13:15:01.593Z,6080
2017-04-07T13:19:57.499Z,6092
2017-04-07T13:24:54.122Z,6876
2017-04-07T13:29:50.699Z,8492
2017-04-07T13:34:48.828Z,8516
2017-04-07T13:39:45.228Z,6824
2017-04-07T13:44:42.032Z,6272
2017-04-07T13:49:38.576Z,6192
2017-04-07T13:54:35.204Z,6016
2017-04-07T13:59:31.630Z,5528
2017-04-07T14:04:27.957Z,6680
2017-04-07T14:09:25.518Z,5588
2017-04-07T14:14:22.173Z,4400
2017-04-07T14:19:22.128Z,3800
2017-04-07T14:24:17.684Z,4216
2017-04-07T14:29:14.391Z,4324
2017-04-07T14:34:19.792Z,4440
2017-04-07T14:39:15.672Z,4724
2017-04-07T14:44:12.106Z,4928
2017-04-07T14:49:09.009Z,5356
2017-04-07T14:54:06.008Z,5132
2017-04-07T15:04:07.367Z,4452
2017-04-07T15:09:03.978Z,4008
2017-04-07T15:14:00.835Z,3952
2017-04-07T15:18:56.946Z,4104
2017-04-07T15:23:53.696Z,3568
2017-04-07T15:28:50.425Z,3336
2017-04-07T15:33:48.795Z,3104
2017-04-07T15:38:45.015Z,2924
2017-04-07T15:43:41.418Z,2548
2017-04-07T15:48:37.595Z,2436
2017-04-07T15:53:34.099Z,2560
2017-04-07T16:03:30.752Z,2196
2017-04-07T16:08:27.973Z,2232
2017-04-07T16:13:24.949Z,2456
2017-04-07T16:18:21.383Z,2308
2017-04-07T16:23:17.890Z,1976
2017-04-07T16:28:14.370Z,1968
2017-04-07T16:33:10.841Z,1820
2017-04-07T16:38:07.474Z,1716
2017-04-07T16:43:05.130Z,1664
2017-04-07T16:48:01.953Z,1500
2017-04-07T16:52:59.695Z,1148
2017-04-07T16:57:56.415Z,1180
2017-04-07T17:02:52.909Z,1112
2017-04-07T17:07:49.221Z,1028
2017-04-07T17:12:45.684Z,776
2017-04-07T17:17:42.494Z,672
2017-04-07T17:22:39.486Z,664
2017-04-07T17:27:35.543Z,608
2017-04-07T17:32:32.013Z,548
2017-04-07T17:37:28.700Z,388
2017-04-07T17:42:25.461Z,280
2017-04-07T17:47:22.035Z,228
2017-04-07T17:52:18.551Z,192
2017-04-07T17:57:15.000Z,156
2017-04-07T18:02:11.414Z,124
2017-04-07T18:07:09.081Z,108
2017-04-07T18:12:05.808Z,80
2017-04-07T18:17:02.340Z,52
2017-04-07T18:21:58.894Z,32
2017-04-07T18:26:55.447Z,16
2017-04-07T18:31:51.567Z,4
2017-04-07T18:36:48.148Z,4
2017-04-07T18:41:44.507Z,0
2017-04-07T18:46:40.902Z,0
2017-04-07T18:51:37.936Z,0
2017-04-07T18:56:34.666Z,0
2017-04-07T19:01:31.198Z,0
2017-04-07T19:06:28.360Z,0
2017-04-07T19:11:25.279Z,0
2017-04-07T19:16:22.022Z,0
2017-04-07T19:21:18.328Z,0
2017-04-07T19:26:15.196Z,0
2017-04-07T19:31:11.361Z,0
2017-04-07T19:36:07.824Z,0
2017-04-07T19:41:04.295Z,0
2017-04-07T19:46:00.755Z,0
2017-04-07T19:50:57.272Z,0
2017-04-07T19:55:53.858Z,0
2017-04-07T20:00:50.442Z,0
2017-04-07T20:05:46.835Z,0
2017-04-07T20:10:43.322Z,0
2017-04-07T20:15:40.058Z,0
2017-04-07T20:20:36.365Z,0
2017-04-07T20:25:32.907Z,0
2017-04-07T20:30:29.692Z,0
2017-04-07T20:35:26.232Z,0
2017-04-07T20:40:22.670Z,0
2017-04-07T20:45:19.202Z,0
2017-04-07T20:50:15.270Z,0
2017-04-07T20:55:13.306Z,0
2017-04-07T21:00:09.470Z,0
2017-04-07T21:05:06.543Z,0
2017-04-07T21:10:03.007Z,0
2017-04-07T21:14:59.520Z,0
2017-04-07T21:19:56.055Z,0
2017-04-07T21:24:52.620Z,0
2017-04-07T21:29:48.843Z,0
2017-04-07T21:34:45.582Z,0
2017-04-07T21:39:42.436Z,0
2017-04-07T21:44:39.331Z,0
2017-04-07T21:49:35.946Z,0
2017-04-07T21:54:32.375Z,0
2017-04-07T21:59:28.674Z,0
2017-04-07T22:04:25.582Z,0
2017-04-07T22:09:22.944Z,0
2017-04-07T22:14:19.190Z,0
2017-04-07T22:19:15.905Z,0
2017-04-07T22:24:12.459Z,0
2017-04-07T22:29:08.723Z,0
2017-04-07T22:34:05.550Z,0
2017-04-07T22:39:01.753Z,0
2017-04-07T22:43:58.321Z,0
2017-04-07T22:48:55.070Z,0
2017-04-07T22:53:51.193Z,0
2017-04-07T22:58:47.950Z,0
2017-04-07T23:03:44.215Z,0
2017-04-07T23:08:40.852Z,0
2017-04-07T23:13:38.199Z,0
2017-04-07T23:18:35.913Z,0
2017-04-07T23:23:32.014Z,0
2017-04-07T23:28:29.611Z,0
2017-04-07T23:38:25.982Z,0
2017-04-07T23:43:22.178Z,0
2017-04-07T23:48:18.848Z,0
2017-04-07T23:53:15.155Z,0
2017-04-07T23:58:11.544Z,0
